sensor_id;sensor_type;location;lat;lon;timestamp;pressure;altitude;pressure_sealevel;temperature;humidity
5753;BME280;2901;42.140;24.760;2024-02-26T00:00:09;99079.81;;;11.62;100.00
5753;BME280;2901;42.140;24.760;2024-02-26T00:02:38;99081.44;;;11.67;100.00
5753;BME280;2901;42.140;24.760;2024-02-26T00:05:06;99081.53;;;11.61;100.00
5753;BME280;2901;42.140;24.760;2024-02-26T00:07:31;99085.13;;;11.56;100.00
5753;BME280;2901;42.140;24.760;2024-02-26T00:09:57;99078.31;;;11.49;100.00
5753;BME280;2901;42.140;24.760;2024-02-26T00:12:22;99073.06;;;11.52;100.00
5753;BME280;2901;42.140;24.760;2024-02-26T00:14:48;99069.63;;;11.50;100.00
5753;BME280;2901;42.140;24.760;2024-02-26T00:17:14;99067.94;;;11.49;100.00
5753;BME280;2901;42.140;24.760;2024-02-26T00:19:40;99072.38;;;11.40;100.00
5753;BME280;2901;42.140;24.760;2024-02-26T00:22:05;99072.28;;;11.48;100.00
5753;BME280;2901;42.140;24.760;2024-02-26T00:24:31;99069.44;;;11.60;100.00
5753;BME280;2901;42.140;24.760;2024-02-26T00:26:56;99070.25;;;11.65;100.00
5753;BME280;2901;42.140;24.760;2024-02-26T00:29:21;99064.91;;;11.74;100.00
5753;BME280;2901;42.140;24.760;2024-02-26T00:31:47;99077.78;;;11.79;100.00
5753;BME280;2901;42.140;24.760;2024-02-26T00:34:12;99076.16;;;11.75;100.00
5753;BME280;2901;42.140;24.760;2024-02-26T00:36:38;99080.56;;;11.67;100.00
5753;BME280;2901;42.140;24.760;2024-02-26T00:39:03;99077.34;;;11.56;100.00
5753;BME280;2901;42.140;24.760;2024-02-26T00:41:29;99085.94;;;11.56;100.00
5753;BME280;2901;42.140;24.760;2024-02-26T00:43:54;99078.19;;;11.55;100.00
5753;BME280;2901;42.140;24.760;2024-02-26T00:46:20;99078.25;;;11.52;100.00
5753;BME280;2901;42.140;24.760;2024-02-26T00:48:45;99073.06;;;11.52;100.00
5753;BME280;2901;42.140;24.760;2024-02-26T00:51:10;99066.22;;;11.49;100.00
5753;BME280;2901;42.140;24.760;2024-02-26T00:53:36;99075.38;;;11.68;100.00
5753;BME280;2901;42.140;24.760;2024-02-26T00:56:01;99035.63;;;11.66;100.00
5753;BME280;2901;42.140;24.760;2024-02-26T00:58:27;99033.25;;;11.56;100.00
5753;BME280;2901;42.140;24.760;2024-02-26T01:00:52;99024.63;;;11.54;100.00
5753;BME280;2901;42.140;24.760;2024-02-26T01:03:18;99004.13;;;11.41;100.00
5753;BME280;2901;42.140;24.760;2024-02-26T01:05:44;98999.16;;;11.29;100.00
5753;BME280;2901;42.140;24.760;2024-02-26T01:08:09;98979.28;;;11.28;100.00
5753;BME280;2901;42.140;24.760;2024-02-26T01:10:35;98971.63;;;11.22;100.00
5753;BME280;2901;42.140;24.760;2024-02-26T01:13:01;98985.28;;;11.30;100.00
5753;BME280;2901;42.140;24.760;2024-02-26T01:15:26;98996.53;;;11.31;100.00
5753;BME280;2901;42.140;24.760;2024-02-26T01:17:52;99000.94;;;11.24;100.00
5753;BME280;2901;42.140;24.760;2024-02-26T01:20:17;99004.41;;;11.25;100.00
5753;BME280;2901;42.140;24.760;2024-02-26T01:22:43;99025.03;;;11.32;100.00
5753;BME280;2901;42.140;24.760;2024-02-26T01:25:09;99023.13;;;11.40;100.00
5753;BME280;2901;42.140;24.760;2024-02-26T01:27:35;99003.25;;;11.39;100.00
5753;BME280;2901;42.140;24.760;2024-02-26T01:30:03;99003.25;;;11.42;100.00
5753;BME280;2901;42.140;24.760;2024-02-26T01:32:29;99032.50;;;11.49;100.00
5753;BME280;2901;42.140;24.760;2024-02-26T01:34:54;99037.59;;;11.54;100.00
5753;BME280;2901;42.140;24.760;2024-02-26T01:37:20;99035.63;;;11.66;100.00
5753;BME280;2901;42.140;24.760;2024-02-26T01:39:45;99019.19;;;11.69;100.00
5753;BME280;2901;42.140;24.760;2024-02-26T01:42:11;99019.16;;;11.70;100.00
5753;BME280;2901;42.140;24.760;2024-02-26T01:44:36;99025.97;;;11.76;100.00
5753;BME280;2901;42.140;24.760;2024-02-26T01:47:04;99023.41;;;11.74;100.00
5753;BME280;2901;42.140;24.760;2024-02-26T01:49:30;99034.41;;;11.87;100.00
5753;BME280;2901;42.140;24.760;2024-02-26T01:51:57;99030.09;;;11.86;100.00
5753;BME280;2901;42.140;24.760;2024-02-26T01:54:23;99026.75;;;11.79;100.00
5753;BME280;2901;42.140;24.760;2024-02-26T01:56:49;99025.91;;;11.79;100.00
5753;BME280;2901;42.140;24.760;2024-02-26T01:59:16;99023.31;;;11.79;100.00
5753;BME280;2901;42.140;24.760;2024-02-26T02:01:44;99023.41;;;11.74;100.00
5753;BME280;2901;42.140;24.760;2024-02-26T02:04:11;99031.34;;;11.65;100.00
5753;BME280;2901;42.140;24.760;2024-02-26T02:06:37;99035.75;;;11.60;100.00
5753;BME280;2901;42.140;24.760;2024-02-26T02:09:03;99027.09;;;11.61;100.00
5753;BME280;2901;42.140;24.760;2024-02-26T02:11:33;99024.44;;;11.63;100.00
5753;BME280;2901;42.140;24.760;2024-02-26T02:13:58;99020.97;;;11.64;100.00
5753;BME280;2901;42.140;24.760;2024-02-26T02:16:24;99021.78;;;11.66;100.00
5753;BME280;2901;42.140;24.760;2024-02-26T02:18:50;99031.41;;;11.61;100.00
5753;BME280;2901;42.140;24.760;2024-02-26T02:21:15;99021.22;;;11.52;100.00
5753;BME280;2901;42.140;24.760;2024-02-26T02:23:40;99021.28;;;11.49;100.00
5753;BME280;2901;42.140;24.760;2024-02-26T02:26:12;99017.03;;;11.43;100.00
5753;BME280;2901;42.140;24.760;2024-02-26T02:28:38;99021.34;;;11.45;100.00
5753;BME280;2901;42.140;24.760;2024-02-26T02:31:05;98998.38;;;11.24;100.00
5753;BME280;2901;42.140;24.760;2024-02-26T02:33:30;99023.94;;;11.45;100.00
5753;BME280;2901;42.140;24.760;2024-02-26T02:35:56;99019.88;;;11.29;100.00
5753;BME280;2901;42.140;24.760;2024-02-26T02:38:21;99009.72;;;11.17;100.00
5753;BME280;2901;42.140;24.760;2024-02-26T02:40:46;99005.66;;;11.01;100.00
5753;BME280;2901;42.140;24.760;2024-02-26T02:43:12;99013.97;;;11.21;100.00
5753;BME280;2901;42.140;24.760;2024-02-26T02:45:37;99014.72;;;11.26;100.00
5753;BME280;2901;42.140;24.760;2024-02-26T02:48:03;99013.84;;;11.29;100.00
5753;BME280;2901;42.140;24.760;2024-02-26T02:50:28;99025.03;;;11.31;100.00
5753;BME280;2901;42.140;24.760;2024-02-26T02:52:54;99019.97;;;11.23;100.00
5753;BME280;2901;42.140;24.760;2024-02-26T02:55:20;99024.31;;;11.23;100.00
5753;BME280;2901;42.140;24.760;2024-02-26T02:57:45;99026.13;;;11.18;100.00
5753;BME280;2901;42.140;24.760;2024-02-26T03:00:11;99020.88;;;11.22;100.00
5753;BME280;2901;42.140;24.760;2024-02-26T03:02:37;99025.19;;;11.20;100.00
5753;BME280;2901;42.140;24.760;2024-02-26T03:05:03;99039.06;;;11.18;100.00
5753;BME280;2901;42.140;24.760;2024-02-26T03:07:29;99032.28;;;11.11;100.00
5753;BME280;2901;42.140;24.760;2024-02-26T03:09:54;99030.59;;;11.07;100.00
5753;BME280;2901;42.140;24.760;2024-02-26T03:12:20;99028.06;;;11.05;100.00
5753;BME280;2901;42.140;24.760;2024-02-26T03:14:46;99034.00;;;11.10;100.00
5753;BME280;2901;42.140;24.760;2024-02-26T03:17:11;99044.38;;;11.10;100.00
5753;BME280;2901;42.140;24.760;2024-02-26T03:19:37;99047.00;;;11.09;100.00
5753;BME280;2901;42.140;24.760;2024-02-26T03:22:02;99039.19;;;11.10;100.00
5753;BME280;2901;42.140;24.760;2024-02-26T03:24:28;99041.91;;;11.03;100.00
5753;BME280;2901;42.140;24.760;2024-02-26T03:26:53;99040.09;;;11.08;100.00
5753;BME280;2901;42.140;24.760;2024-02-26T03:29:19;99039.22;;;11.09;100.00
5753;BME280;2901;42.140;24.760;2024-02-26T03:31:44;99029.72;;;11.09;100.00
5753;BME280;2901;42.140;24.760;2024-02-26T03:34:10;99020.19;;;11.11;100.00
5753;BME280;2901;42.140;24.760;2024-02-26T03:36:37;99035.63;;;11.19;100.00
5753;BME280;2901;42.140;24.760;2024-02-26T03:39:02;99037.34;;;11.17;100.00
5753;BME280;2901;42.140;24.760;2024-02-26T03:41:33;99036.44;;;11.21;100.00
5753;BME280;2901;42.140;24.760;2024-02-26T03:43:58;99040.66;;;11.26;100.00
5753;BME280;2901;42.140;24.760;2024-02-26T03:46:24;99041.50;;;11.27;100.00
5753;BME280;2901;42.140;24.760;2024-02-26T03:48:49;99042.31;;;11.30;100.00
5753;BME280;2901;42.140;24.760;2024-02-26T03:51:14;99039.72;;;11.32;100.00
5753;BME280;2901;42.140;24.760;2024-02-26T03:53:40;99033.78;;;11.24;100.00
5753;BME280;2901;42.140;24.760;2024-02-26T03:56:06;99033.69;;;11.30;100.00
5753;BME280;2901;42.140;24.760;2024-02-26T03:58:31;99039.00;;;11.22;100.00
5753;BME280;2901;42.140;24.760;2024-02-26T04:00:57;99039.00;;;11.22;100.00
5753;BME280;2901;42.140;24.760;2024-02-26T04:03:22;99051.94;;;11.24;100.00
5753;BME280;2901;42.140;24.760;2024-02-26T04:05:48;99039.94;;;11.17;100.00
5753;BME280;2901;42.140;24.760;2024-02-26T04:08:13;99048.56;;;11.17;100.00
5753;BME280;2901;42.140;24.760;2024-02-26T04:10:38;99043.50;;;11.13;100.00
5753;BME280;2901;42.140;24.760;2024-02-26T04:13:05;99027.19;;;11.03;100.00
5753;BME280;2901;42.140;24.760;2024-02-26T04:15:31;99036.53;;;11.15;100.00
5753;BME280;2901;42.140;24.760;2024-02-26T04:17:56;99045.06;;;11.20;100.00
5753;BME280;2901;42.140;24.760;2024-02-26T04:20:22;99041.72;;;11.16;100.00
5753;BME280;2901;42.140;24.760;2024-02-26T04:22:47;99043.41;;;11.17;100.00
5753;BME280;2901;42.140;24.760;2024-02-26T04:25:12;99038.25;;;11.14;100.00
5753;BME280;2901;42.140;24.760;2024-02-26T04:27:38;99040.03;;;11.11;100.00
5753;BME280;2901;42.140;24.760;2024-02-26T04:30:05;99040.00;;;11.14;100.00
5753;BME280;2901;42.140;24.760;2024-02-26T04:32:30;99044.25;;;11.19;100.00
5753;BME280;2901;42.140;24.760;2024-02-26T04:34:56;99037.34;;;11.18;100.00
5753;BME280;2901;42.140;24.760;2024-02-26T04:37:21;99044.25;;;11.19;100.00
5753;BME280;2901;42.140;24.760;2024-02-26T04:39:46;99050.25;;;11.21;100.00
5753;BME280;2901;42.140;24.760;2024-02-26T04:42:12;99053.72;;;11.20;100.00
5753;BME280;2901;42.140;24.760;2024-02-26T04:44:37;99046.78;;;11.21;100.00
5753;BME280;2901;42.140;24.760;2024-02-26T04:47:03;99047.66;;;11.21;100.00
5753;BME280;2901;42.140;24.760;2024-02-26T04:49:28;99054.66;;;11.16;100.00
5753;BME280;2901;42.140;24.760;2024-02-26T04:51:53;99051.97;;;11.22;100.00
5753;BME280;2901;42.140;24.760;2024-02-26T04:54:19;99056.28;;;11.22;100.00
5753;BME280;2901;42.140;24.760;2024-02-26T04:56:44;99048.47;;;11.23;100.00
5753;BME280;2901;42.140;24.760;2024-02-26T04:59:10;99056.28;;;11.22;100.00
5753;BME280;2901;42.140;24.760;2024-02-26T05:01:35;99049.38;;;11.22;100.00
5753;BME280;2901;42.140;24.760;2024-02-26T05:04:02;99061.34;;;11.29;100.00
5753;BME280;2901;42.140;24.760;2024-02-26T05:06:28;99060.50;;;11.29;100.00
5753;BME280;2901;42.140;24.760;2024-02-26T05:08:53;99066.50;;;11.31;100.00
5753;BME280;2901;42.140;24.760;2024-02-26T05:11:19;99056.94;;;11.34;100.00
5753;BME280;2901;42.140;24.760;2024-02-26T05:13:44;99066.41;;;11.37;100.00
5753;BME280;2901;42.140;24.760;2024-02-26T05:16:10;99056.88;;;11.37;100.00
5753;BME280;2901;42.140;24.760;2024-02-26T05:18:36;99056.13;;;11.32;100.00
5753;BME280;2901;42.140;24.760;2024-02-26T05:21:01;99069.16;;;11.28;100.00
5753;BME280;2901;42.140;24.760;2024-02-26T05:23:28;99057.91;;;11.27;100.00
5753;BME280;2901;42.140;24.760;2024-02-26T05:25:54;99066.78;;;11.14;100.00
5753;BME280;2901;42.140;24.760;2024-02-26T05:28:19;99065.91;;;11.15;100.00
5753;BME280;2901;42.140;24.760;2024-02-26T05:30:45;99065.78;;;11.21;100.00
5753;BME280;2901;42.140;24.760;2024-02-26T05:33:11;99072.50;;;11.33;100.00
5753;BME280;2901;42.140;24.760;2024-02-26T05:35:37;99075.88;;;11.38;100.00
5753;BME280;2901;42.140;24.760;2024-02-26T05:38:02;99073.19;;;11.44;100.00
5753;BME280;2901;42.140;24.760;2024-02-26T05:40:27;99082.59;;;11.51;100.00
5753;BME280;2901;42.140;24.760;2024-02-26T05:42:53;99089.44;;;11.55;100.00
5753;BME280;2901;42.140;24.760;2024-02-26T05:45:18;99081.50;;;11.63;100.00
5753;BME280;2901;42.140;24.760;2024-02-26T05:47:44;99080.75;;;11.58;100.00
5753;BME280;2901;42.140;24.760;2024-02-26T05:50:09;99073.03;;;11.53;100.00
5753;BME280;2901;42.140;24.760;2024-02-26T05:52:39;99077.34;;;11.56;100.00
5753;BME280;2901;42.140;24.760;2024-02-26T05:55:05;99083.25;;;11.62;100.00
5753;BME280;2901;42.140;24.760;2024-02-26T05:57:31;99090.94;;;11.68;100.00
5753;BME280;2901;42.140;24.760;2024-02-26T05:59:57;99090.13;;;11.65;100.00
5753;BME280;2901;42.140;24.760;2024-02-26T06:02:26;99103.09;;;11.65;100.00
5753;BME280;2901;42.140;24.760;2024-02-26T06:04:51;99099.59;;;11.67;100.00
5753;BME280;2901;42.140;24.760;2024-02-26T06:07:16;99089.44;;;11.54;100.00
5753;BME280;2901;42.140;24.760;2024-02-26T06:09:42;99105.00;;;11.54;100.00
5753;BME280;2901;42.140;24.760;2024-02-26T06:12:07;99101.53;;;11.55;100.00
5753;BME280;2901;42.140;24.760;2024-02-26T06:14:33;99104.88;;;11.61;100.00
5753;BME280;2901;42.140;24.760;2024-02-26T06:16:58;99104.78;;;11.67;100.00
5753;BME280;2901;42.140;24.760;2024-02-26T06:19:23;99102.16;;;11.69;100.00
5753;BME280;2901;42.140;24.760;2024-02-26T06:21:49;99107.28;;;11.75;100.00
5753;BME280;2901;42.140;24.760;2024-02-26T06:24:15;99115.69;;;11.87;100.00
5753;BME280;2901;42.140;24.760;2024-02-26T06:26:40;99113.84;;;11.92;100.00
5753;BME280;2901;42.140;24.760;2024-02-26T06:29:06;99119.03;;;11.94;100.00
5753;BME280;2901;42.140;24.760;2024-02-26T06:31:31;99115.41;;;12.03;100.00
5753;BME280;2901;42.140;24.760;2024-02-26T06:33:56;99118.75;;;12.09;100.00
5753;BME280;2901;42.140;24.760;2024-02-26T06:36:22;99117.00;;;12.11;100.00
5753;BME280;2901;42.140;24.760;2024-02-26T06:38:48;99124.72;;;12.14;100.00
5753;BME280;2901;42.140;24.760;2024-02-26T06:41:14;99136.84;;;12.12;100.00
5753;BME280;2901;42.140;24.760;2024-02-26T06:43:39;99126.63;;;12.05;100.00
5753;BME280;2901;42.140;24.760;2024-02-26T06:46:05;99141.28;;;12.06;100.00
5753;BME280;2901;42.140;24.760;2024-02-26T06:48:31;99127.38;;;12.11;100.00
5753;BME280;2901;42.140;24.760;2024-02-26T06:50:56;99130.72;;;12.16;100.00
5753;BME280;2901;42.140;24.760;2024-02-26T06:53:22;99128.16;;;12.15;100.00
5753;BME280;2901;42.140;24.760;2024-02-26T06:55:47;99137.59;;;12.19;100.00
5753;BME280;2901;42.140;24.760;2024-02-26T06:58:14;99140.31;;;12.13;100.00
5753;BME280;2901;42.140;24.760;2024-02-26T07:00:40;99137.66;;;12.16;100.00
5753;BME280;2901;42.140;24.760;2024-02-26T07:03:05;99138.50;;;12.18;100.00
5753;BME280;2901;42.140;24.760;2024-02-26T07:05:31;99140.88;;;12.28;100.00
5753;BME280;2901;42.140;24.760;2024-02-26T07:07:56;99140.06;;;12.26;100.00
5753;BME280;2901;42.140;24.760;2024-02-26T07:10:21;99142.59;;;12.29;100.00
5753;BME280;2901;42.140;24.760;2024-02-26T07:12:47;99140.19;;;12.19;100.00
5753;BME280;2901;42.140;24.760;2024-02-26T07:15:13;99136.38;;;12.38;100.00
5753;BME280;2901;42.140;24.760;2024-02-26T07:17:38;99130.94;;;12.50;100.00
5753;BME280;2901;42.140;24.760;2024-02-26T07:20:08;99142.78;;;12.63;100.00
5753;BME280;2901;42.140;24.760;2024-02-26T07:22:33;99139.31;;;12.64;100.00
5753;BME280;2901;42.140;24.760;2024-02-26T07:24:59;99147.78;;;12.72;100.00
5753;BME280;2901;42.140;24.760;2024-02-26T07:27:24;99152.00;;;12.78;100.00
5753;BME280;2901;42.140;24.760;2024-02-26T07:29:49;99150.06;;;12.87;100.00
5753;BME280;2901;42.140;24.760;2024-02-26T07:32:15;99150.84;;;12.91;100.00
5753;BME280;2901;42.140;24.760;2024-02-26T07:34:41;99144.75;;;12.93;100.00
5753;BME280;2901;42.140;24.760;2024-02-26T07:37:11;99150.44;;;13.11;100.00
5753;BME280;2901;42.140;24.760;2024-02-26T07:39:36;99148.47;;;13.22;100.00
5753;BME280;2901;42.140;24.760;2024-02-26T07:42:02;99149.09;;;13.31;100.00
5753;BME280;2901;42.140;24.760;2024-02-26T07:44:28;99142.78;;;13.41;100.00
5753;BME280;2901;42.140;24.760;2024-02-26T07:46:53;99143.34;;;13.54;100.00
5753;BME280;2901;42.140;24.760;2024-02-26T07:49:19;99140.56;;;13.63;100.00
5753;BME280;2901;42.140;24.760;2024-02-26T07:51:44;99133.44;;;13.70;100.00
5753;BME280;2901;42.140;24.760;2024-02-26T07:54:09;99145.69;;;13.66;100.00
5753;BME280;2901;42.140;24.760;2024-02-26T07:56:35;99140.72;;;13.56;100.00
5753;BME280;2901;42.140;24.760;2024-02-26T07:59:00;99140.25;;;13.40;100.00
5753;BME280;2901;42.140;24.760;2024-02-26T08:01:25;99137.84;;;13.31;100.00
5753;BME280;2901;42.140;24.760;2024-02-26T08:03:54;99138.88;;;13.24;100.00
5753;BME280;2901;42.140;24.760;2024-02-26T08:06:21;99141.47;;;13.24;100.00
5753;BME280;2901;42.140;24.760;2024-02-26T08:08:46;99136.28;;;13.24;100.00
5753;BME280;2901;42.140;24.760;2024-02-26T08:11:14;99136.09;;;13.33;100.00
5753;BME280;2901;42.140;24.760;2024-02-26T08:13:40;99135.06;;;13.38;100.00
5753;BME280;2901;42.140;24.760;2024-02-26T08:16:05;99138.56;;;13.37;100.00
5753;BME280;2901;42.140;24.760;2024-02-26T08:18:31;99142.88;;;13.38;100.00
5753;BME280;2901;42.140;24.760;2024-02-26T08:20:56;99131.22;;;13.55;100.00
5753;BME280;2901;42.140;24.760;2024-02-26T08:23:21;99125.66;;;13.68;99.96
5753;BME280;2901;42.140;24.760;2024-02-26T08:25:47;99125.44;;;13.77;99.69
5753;BME280;2901;42.140;24.760;2024-02-26T08:28:13;99135.56;;;13.89;98.34
5753;BME280;2901;42.140;24.760;2024-02-26T08:30:39;99133.94;;;13.84;98.16
5753;BME280;2901;42.140;24.760;2024-02-26T08:33:04;99145.59;;;14.03;97.32
5753;BME280;2901;42.140;24.760;2024-02-26T08:35:29;99132.38;;;14.11;97.12
5753;BME280;2901;42.140;24.760;2024-02-26T08:37:55;99121.59;;;14.24;96.30
5753;BME280;2901;42.140;24.760;2024-02-26T08:40:20;99131.22;;;14.22;95.41
5753;BME280;2901;42.140;24.760;2024-02-26T08:42:46;99134.06;;;14.45;95.34
5753;BME280;2901;42.140;24.760;2024-02-26T08:45:11;99132.16;;;14.52;94.03
5753;BME280;2901;42.140;24.760;2024-02-26T08:47:37;99137.97;;;14.60;93.60
5753;BME280;2901;42.140;24.760;2024-02-26T08:50:04;99126.41;;;14.69;93.09
5753;BME280;2901;42.140;24.760;2024-02-26T08:52:30;99130.91;;;14.65;93.22
5753;BME280;2901;42.140;24.760;2024-02-26T08:54:55;99130.16;;;14.60;92.85
5753;BME280;2901;42.140;24.760;2024-02-26T08:57:22;99124.75;;;14.66;92.82
5753;BME280;2901;42.140;24.760;2024-02-26T08:59:47;99135.53;;;14.85;92.52
5753;BME280;2901;42.140;24.760;2024-02-26T09:02:12;99122.78;;;15.03;91.54
5753;BME280;2901;42.140;24.760;2024-02-26T09:04:38;99117.28;;;15.13;90.85
5753;BME280;2901;42.140;24.760;2024-02-26T09:07:03;99123.69;;;15.30;89.47
5753;BME280;2901;42.140;24.760;2024-02-26T09:09:29;99126.97;;;15.37;89.11
5753;BME280;2901;42.140;24.760;2024-02-26T09:11:54;99125.25;;;15.36;88.62
5753;BME280;2901;42.140;24.760;2024-02-26T09:14:21;99118.84;;;15.46;88.91
5753;BME280;2901;42.140;24.760;2024-02-26T09:16:46;99126.16;;;15.63;88.27
5753;BME280;2901;42.140;24.760;2024-02-26T09:19:14;99120.25;;;15.82;87.40
5753;BME280;2901;42.140;24.760;2024-02-26T09:21:44;99120.47;;;16.01;86.78
5753;BME280;2901;42.140;24.760;2024-02-26T09:24:10;99121.19;;;16.06;84.56
5753;BME280;2901;42.140;24.760;2024-02-26T09:26:35;99111.09;;;16.20;84.19
5753;BME280;2901;42.140;24.760;2024-02-26T09:29:01;99117.53;;;16.35;82.84
5753;BME280;2901;42.140;24.760;2024-02-26T09:31:27;99126.41;;;16.54;82.33
5753;BME280;2901;42.140;24.760;2024-02-26T09:33:52;99120.59;;;16.71;80.79
5753;BME280;2901;42.140;24.760;2024-02-26T09:36:17;99114.97;;;16.81;79.48
5753;BME280;2901;42.140;24.760;2024-02-26T09:38:43;99120.66;;;16.92;79.24
5753;BME280;2901;42.140;24.760;2024-02-26T09:41:16;99116.56;;;17.08;78.19
5753;BME280;2901;42.140;24.760;2024-02-26T09:43:44;99127.25;;;17.24;76.92
5753;BME280;2901;42.140;24.760;2024-02-26T09:46:11;99121.72;;;17.32;75.97
5753;BME280;2901;42.140;24.760;2024-02-26T09:48:37;99106.25;;;17.47;75.52
5753;BME280;2901;42.140;24.760;2024-02-26T09:51:04;99109.19;;;17.61;74.99
5753;BME280;2901;42.140;24.760;2024-02-26T09:53:30;99103.91;;;17.83;73.27
5753;BME280;2901;42.140;24.760;2024-02-26T09:55:58;99100.56;;;18.00;72.18
5753;BME280;2901;42.140;24.760;2024-02-26T09:58:25;99096.84;;;18.05;71.60
5753;BME280;2901;42.140;24.760;2024-02-26T10:00:56;99097.63;;;18.07;70.84
5753;BME280;2901;42.140;24.760;2024-02-26T10:03:26;99101.16;;;18.06;70.75
5753;BME280;2901;42.140;24.760;2024-02-26T10:05:53;99087.66;;;18.15;70.78
5753;BME280;2901;42.140;24.760;2024-02-26T10:08:20;99086.03;;;18.13;70.59
5753;BME280;2901;42.140;24.760;2024-02-26T10:10:47;99076.97;;;18.20;70.48
5753;BME280;2901;42.140;24.760;2024-02-26T10:13:14;99069.31;;;18.15;70.78
5753;BME280;2901;42.140;24.760;2024-02-26T10:15:39;99068.84;;;18.26;70.71
5753;BME280;2901;42.140;24.760;2024-02-26T10:18:05;99060.69;;;18.13;69.39
5753;BME280;2901;42.140;24.760;2024-02-26T10:20:31;99076.31;;;18.15;69.37
5753;BME280;2901;42.140;24.760;2024-02-26T10:22:57;99057.47;;;18.07;69.20
5753;BME280;2901;42.140;24.760;2024-02-26T10:25:23;99057.00;;;18.18;69.09
5753;BME280;2901;42.140;24.760;2024-02-26T10:27:49;99057.44;;;18.27;68.43
5753;BME280;2901;42.140;24.760;2024-02-26T10:30:20;99052.34;;;18.24;68.60
5753;BME280;2901;42.140;24.760;2024-02-26T10:32:47;99057.53;;;18.05;68.42
5753;BME280;2901;42.140;24.760;2024-02-26T10:35:13;99038.16;;;17.89;68.89
5753;BME280;2901;42.140;24.760;2024-02-26T10:37:42;99038.44;;;17.83;68.80
5753;BME280;2901;42.140;24.760;2024-02-26T10:40:12;99030.44;;;17.86;69.32
5753;BME280;2901;42.140;24.760;2024-02-26T10:42:37;99035.69;;;17.86;69.15
5753;BME280;2901;42.140;24.760;2024-02-26T10:45:05;99032.06;;;17.69;70.33
5753;BME280;2901;42.140;24.760;2024-02-26T10:47:31;99028.25;;;17.96;69.92
5753;BME280;2901;42.140;24.760;2024-02-26T10:49:58;99029.75;;;18.01;68.57
5753;BME280;2901;42.140;24.760;2024-02-26T10:52:25;99025.63;;;18.16;68.31
5753;BME280;2901;42.140;24.760;2024-02-26T10:54:53;99018.03;;;18.10;67.74
5753;BME280;2901;42.140;24.760;2024-02-26T10:57:19;99024.19;;;18.09;68.60
5753;BME280;2901;42.140;24.760;2024-02-26T10:59:46;99024.19;;;18.09;67.92
5753;BME280;2901;42.140;24.760;2024-02-26T11:02:13;99020.75;;;18.27;67.06
5753;BME280;2901;42.140;24.760;2024-02-26T11:04:39;99020.34;;;18.36;66.71
5753;BME280;2901;42.140;24.760;2024-02-26T11:07:05;99020.97;;;18.41;66.71
5753;BME280;2901;42.140;24.760;2024-02-26T11:09:32;99014.66;;;18.45;66.33
5753;BME280;2901;42.140;24.760;2024-02-26T11:11:58;99008.31;;;18.70;66.18
5753;BME280;2901;42.140;24.760;2024-02-26T11:14:25;99006.56;;;18.87;64.41
5753;BME280;2901;42.140;24.760;2024-02-26T11:16:51;99000.50;;;19.04;64.00
5753;BME280;2901;42.140;24.760;2024-02-26T11:19:17;98999.22;;;19.12;63.22
5753;BME280;2901;42.140;24.760;2024-02-26T11:21:43;98997.59;;;19.10;62.13
5753;BME280;2901;42.140;24.760;2024-02-26T11:24:12;98990.41;;;18.60;63.43
5753;BME280;2901;42.140;24.760;2024-02-26T11:26:59;98991.38;;;18.58;63.75
5753;BME280;2901;42.140;24.760;2024-02-26T11:29:37;98991.44;;;18.75;63.22
5753;BME280;2901;42.140;24.760;2024-02-26T11:32:03;98975.88;;;18.89;62.80
5753;BME280;2901;42.140;24.760;2024-02-26T11:34:30;98981.38;;;19.02;62.35
5753;BME280;2901;42.140;24.760;2024-02-26T11:36:56;98976.66;;;18.91;61.72
5753;BME280;2901;42.140;24.760;2024-02-26T11:39:21;98977.97;;;18.83;62.91
5753;BME280;2901;42.140;24.760;2024-02-26T11:41:47;98974.53;;;18.81;62.87
5753;BME280;2901;42.140;24.760;2024-02-26T11:44:13;98975.78;;;18.91;62.74
5753;BME280;2901;42.140;24.760;2024-02-26T11:46:40;98969.72;;;19.07;62.29
5753;BME280;2901;42.140;24.760;2024-02-26T11:49:29;98970.44;;;19.28;60.80
5753;BME280;2901;42.140;24.760;2024-02-26T11:51:56;98971.75;;;19.37;60.89
5753;BME280;2901;42.140;24.760;2024-02-26T11:54:44;98970.06;;;19.53;60.23
5753;BME280;2901;42.140;24.760;2024-02-26T11:57:38;98962.59;;;19.62;60.04
5753;BME280;2901;42.140;24.760;2024-02-26T12:02:47;98954.72;;;19.62;59.62
5753;BME280;2901;42.140;24.760;2024-02-26T12:05:20;98963.88;;;19.71;59.45
5753;BME280;2901;42.140;24.760;2024-02-26T12:08:00;98970.31;;;19.65;59.83
5753;BME280;2901;42.140;24.760;2024-02-26T12:10:27;98955.78;;;19.76;58.74
5753;BME280;2901;42.140;24.760;2024-02-26T12:13:07;98952.38;;;19.89;58.86
5753;BME280;2901;42.140;24.760;2024-02-26T12:15:36;98954.56;;;19.98;58.10
5753;BME280;2901;42.140;24.760;2024-02-26T12:18:04;98958.50;;;19.90;57.82
5753;BME280;2901;42.140;24.760;2024-02-26T12:20:30;98949.50;;;19.78;58.60
5753;BME280;2901;42.140;24.760;2024-02-26T12:22:56;98944.63;;;19.71;58.45
5753;BME280;2901;42.140;24.760;2024-02-26T12:25:25;98945.13;;;19.44;59.88
5753;BME280;2901;42.140;24.760;2024-02-26T12:27:51;98945.97;;;19.62;59.84
5753;BME280;2901;42.140;24.760;2024-02-26T12:30:17;98940.38;;;19.85;58.22
5753;BME280;2901;42.140;24.760;2024-02-26T12:32:43;98953.56;;;19.84;58.16
5753;BME280;2901;42.140;24.760;2024-02-26T12:35:08;98936.88;;;19.85;58.11
5753;BME280;2901;42.140;24.760;2024-02-26T12:37:34;98942.16;;;20.00;58.29
5753;BME280;2901;42.140;24.760;2024-02-26T12:40:04;98931.59;;;20.02;57.44
5753;BME280;2901;42.140;24.760;2024-02-26T12:42:32;98935.09;;;20.18;57.03
5753;BME280;2901;42.140;24.760;2024-02-26T12:44:58;98933.16;;;20.37;55.90
5753;BME280;2901;42.140;24.760;2024-02-26T12:47:24;98929.94;;;20.48;55.61
5753;BME280;2901;42.140;24.760;2024-02-26T12:49:49;98936.38;;;20.42;55.67
5753;BME280;2901;42.140;24.760;2024-02-26T12:52:16;98921.44;;;20.43;55.12
5753;BME280;2901;42.140;24.760;2024-02-26T12:54:42;98931.63;;;20.33;55.07
5753;BME280;2901;42.140;24.760;2024-02-26T12:57:09;98918.06;;;20.41;55.16
5753;BME280;2901;42.140;24.760;2024-02-26T12:59:35;98927.81;;;20.54;54.69
5753;BME280;2901;42.140;24.760;2024-02-26T13:02:02;98926.19;;;20.67;54.70